Map

Track Data

SID SEASON NUMBER BASIN SUBBASIN NAME ISO_TIME NATURE LAT LON WMO_WIND WMO_PRES WMO_AGENCY TRACK_TYPE DIST2LAND LANDFALL IFLAG USA_AGENCY USA_ATCF_ID USA_LAT USA_LON USA_RECORD USA_STATUS USA_WIND USA_PRES USA_SSHS USA_R34_NE USA_R34_SE USA_R34_SW USA_R34_NW USA_R50_NE USA_R50_SE USA_R50_SW USA_R50_NW USA_R64_NE USA_R64_SE USA_R64_SW USA_R64_NW USA_POCI USA_ROCI USA_RMW USA_EYE TOKYO_LAT TOKYO_LON TOKYO_GRADE TOKYO_WIND TOKYO_PRES TOKYO_R50_DIR TOKYO_R50_LONG TOKYO_R50_SHORT TOKYO_R30_DIR TOKYO_R30_LONG TOKYO_R30_SHORT TOKYO_LAND CMA_LAT CMA_LON CMA_CAT CMA_WIND CMA_PRES HKO_LAT HKO_LON HKO_CAT HKO_WIND HKO_PRES NEWDELHI_LAT NEWDELHI_LON NEWDELHI_GRADE NEWDELHI_WIND NEWDELHI_PRES NEWDELHI_CI NEWDELHI_DP NEWDELHI_POCI REUNION_LAT REUNION_LON REUNION_TYPE REUNION_WIND REUNION_PRES REUNION_TNUM REUNION_CI REUNION_RMW REUNION_R34_NE REUNION_R34_SE REUNION_R34_SW REUNION_R34_NW REUNION_R50_NE REUNION_R50_SE REUNION_R50_SW REUNION_R50_NW REUNION_R64_NE REUNION_R64_SE REUNION_R64_SW REUNION_R64_NW BOM_LAT BOM_LON BOM_TYPE BOM_WIND BOM_PRES BOM_TNUM BOM_CI BOM_RMW BOM_R34_NE BOM_R34_SE BOM_R34_SW BOM_R34_NW BOM_R50_NE BOM_R50_SE BOM_R50_SW BOM_R50_NW BOM_R64_NE BOM_R64_SE BOM_R64_SW BOM_R64_NW BOM_ROCI BOM_POCI BOM_EYE BOM_POS_METHOD BOM_PRES_METHOD NADI_LAT NADI_LON NADI_CAT NADI_WIND NADI_PRES WELLINGTON_LAT WELLINGTON_LON WELLINGTON_WIND WELLINGTON_PRES DS824_LAT DS824_LON DS824_STAGE DS824_WIND DS824_PRES TD9636_LAT TD9636_LON TD9636_STAGE TD9636_WIND TD9636_PRES TD9635_LAT TD9635_LON TD9635_WIND TD9635_PRES TD9635_ROCI NEUMANN_LAT NEUMANN_LON NEUMANN_CLASS NEUMANN_WIND NEUMANN_PRES MLC_LAT MLC_LON MLC_CLASS MLC_WIND MLC_PRES USA_GUST BOM_GUST BOM_GUST_PER REUNION_GUST REUNION_GUST_PER USA_SEAHGT USA_SEARAD_NE USA_SEARAD_SE USA_SEARAD_SW USA_SEARAD_NW STORM_SPEED STORM_DIR
1871266N11315 1871 24 NA NA NOT_NAMED 1871-09-23 00:00:00 TS 10.5000 -45.0000 main 982 953 _____________O -1 10.5000 -45.0000 TD 30 14 288
1871266N11315 1871 24 NA NA NOT_NAMED 1871-09-23 03:00:00 TS 10.7128 -45.6623 main 946 922 _____________P -1 10.7128 -45.6623 TD 32 13 287
1871266N11315 1871 24 NA NA NOT_NAMED 1871-09-23 06:00:00 TS 10.9000 -46.3000 main 922 893 _____________O -1 10.9000 -46.3000 TS 35 13 285
1871266N11315 1871 24 NA NA NOT_NAMED 1871-09-23 09:00:00 TS 11.0498 -46.9002 main 893 875 _____________P -1 11.0498 -46.9002 TS 37 12 284
1871266N11315 1871 24 NA NA NOT_NAMED 1871-09-23 12:00:00 TS 11.2000 -47.5000 main 875 850 _____________O -1 11.2000 -47.5000 TS 40 13 286
1871266N11315 1871 24 NA NA NOT_NAMED 1871-09-23 15:00:00 TS 11.4000 -48.1500 main 853 829 _____________P -1 11.4000 -48.1500 TS 42 13 287
1871266N11315 1871 24 NA NA NOT_NAMED 1871-09-23 18:00:00 TS 11.6000 -48.8000 main 829 808 _____________O -1 11.6000 -48.8000 TS 45 13 286
1871266N11315 1871 24 NA NA NOT_NAMED 1871-09-23 21:00:00 TS 11.7498 -49.4002 main 808 799 _____________P -1 11.7498 -49.4002 TS 47 12 284
1871266N11315 1871 24 NA NA NOT_NAMED 1871-09-24 00:00:00 TS 11.9000 -50.0000 main 800 792 _____________O -1 11.9000 -50.0000 TS 50 13 286
1871266N11315 1871 24 NA NA NOT_NAMED 1871-09-24 03:00:00 TS 12.1000 -50.6500 main 798 783 _____________P -1 12.1000 -50.6500 TS 52 13 287
1871266N11315 1871 24 NA NA NOT_NAMED 1871-09-24 06:00:00 TS 12.3000 -51.3000 main 784 770 _____________O -1 12.3000 -51.3000 TS 55 13 285
1871266N11315 1871 24 NA NA NOT_NAMED 1871-09-24 09:00:00 TS 12.4348 -51.9003 main 770 767 _____________P -1 12.4348 -51.9003 TS 55 12 284
1871266N11315 1871 24 NA NA NOT_NAMED 1871-09-24 12:00:00 TS 12.6000 -52.5000 main 773 770 _____________O -1 12.6000 -52.5000 TS 55 13 290
1871266N11315 1871 24 NA NA NOT_NAMED 1871-09-24 15:00:00 TS 12.8775 -53.1499 main 793 790 _____________P -1 12.8775 -53.1499 TS 57 14 295
1871266N11315 1871 24 NA NA NOT_NAMED 1871-09-24 18:00:00 TS 13.2000 -53.8000 main 813 783 _____________O -1 13.2000 -53.8000 TS 60 14 297
1871266N11315 1871 24 NA NA NOT_NAMED 1871-09-24 21:00:00 TS 13.4997 -54.4002 main 783 738 _____________P -1 13.4997 -54.4002 TS 60 13 297
1871266N11315 1871 24 NA NA NOT_NAMED 1871-09-25 00:00:00 TS 13.8000 -55.0000 main 738 699 _____________O -1 13.8000 -55.0000 TS 60 14 296
1871266N11315 1871 24 NA NA NOT_NAMED 1871-09-25 03:00:00 TS 14.0999 -55.6501 main 690 657 _____________P -1 14.0999 -55.6501 TS 65 14 295
1871266N11315 1871 24 NA NA NOT_NAMED 1871-09-25 06:00:00 TS 14.4000 -56.3000 main 657 631 _____________O -1 14.4000 -56.3000 HU 70 13 296
1871266N11315 1871 24 NA NA NOT_NAMED 1871-09-25 09:00:00 TS 14.6847 -56.9004 main 631 611 _____________P -1 14.6847 -56.9004 HU 72 13 297
1871266N11315 1871 24 NA NA NOT_NAMED 1871-09-25 12:00:00 TS 15.0000 -57.5000 main 613 603 _____________O -1 15.0000 -57.5000 HU 75 14 300
1871266N11315 1871 24 NA NA NOT_NAMED 1871-09-25 15:00:00 TS 15.3774 -58.1501 main 607 602 _____________P -1 15.3774 -58.1501 HU 75 15 303
1871266N11315 1871 24 NA NA NOT_NAMED 1871-09-25 18:00:00 TS 15.8000 -58.8000 main 618 614 _____________O -1 15.8000 -58.8000 HU 75 15 306
1871266N11315 1871 24 NA NA NOT_NAMED 1871-09-25 21:00:00 TS 16.2497 -59.4002 main 639 617 _____________P -1 16.2497 -59.4002 HU 75 15 308
1871266N11315 1871 24 NA NA NOT_NAMED 1871-09-26 00:00:00 TS 16.7000 -60.0000 main 617 543 _____________O -1 16.7000 -60.0000 HU 75 15 306
1871266N11315 1871 24 NA CS NOT_NAMED 1871-09-26 03:00:00 TS 17.1074 -60.6502 main 533 461 _____________P -1 17.1074 -60.6502 HU 75 15 303
1871266N11315 1871 24 NA CS NOT_NAMED 1871-09-26 06:00:00 TS 17.5000 -61.3000 main 461 392 _____________O -1 17.5000 -61.3000 HU 75 15 304
1871266N11315 1871 24 NA CS NOT_NAMED 1871-09-26 09:00:00 TS 17.9223 -61.9150 main 392 327 _____________P -1 17.9223 -61.9150 HU 75 14 305
1871266N11315 1871 24 NA CS NOT_NAMED 1871-09-26 12:00:00 TS 18.3000 -62.5000 main 327 264 _____________O -1 18.3000 -62.5000 HU 75 13 300
1871266N11315 1871 24 NA CS NOT_NAMED 1871-09-26 15:00:00 TS 18.5650 -63.0953 main 264 215 _____________P -1 18.5650 -63.0953 HU 77 12 296
1871266N11315 1871 24 NA CS NOT_NAMED 1871-09-26 18:00:00 TS 18.8000 -63.6000 main 215 191 _____________O -1 18.8000 -63.6000 HU 80 10 304
1871266N11315 1871 24 NA NA NOT_NAMED 1871-09-26 21:00:00 TS 19.0997 -63.9452 main 195 181 _____________P -1 19.0997 -63.9452 HU 80 8 317
1871266N11315 1871 24 NA NA NOT_NAMED 1871-09-27 00:00:00 TS 19.4000 -64.2000 main 184 183 _____________O -1 19.4000 -64.2000 HU 80 7 319
1871266N11315 1871 24 NA NA NOT_NAMED 1871-09-27 03:00:00 TS 19.6273 -64.4280 main 184 184 _____________P -1 19.6273 -64.4280 HU 80 7 317
1871266N11315 1871 24 NA NA NOT_NAMED 1871-09-27 06:00:00 TS 19.9000 -64.7000 main 192 192 _____________O -1 19.9000 -64.7000 HU 80 10 316
1871266N11315 1871 24 NA NA NOT_NAMED 1871-09-27 09:00:00 TS 20.3126 -65.1273 main 218 216 _____________P -1 20.3126 -65.1273 HU 80 12 317
1871266N11315 1871 24 NA NA NOT_NAMED 1871-09-27 12:00:00 TS 20.8000 -65.6000 main 268 268 _____________O -1 20.8000 -65.6000 HU 80 13 319
1871266N11315 1871 24 NA NA NOT_NAMED 1871-09-27 15:00:00 TS 21.3000 -66.0374 main 324 324 _____________P -1 21.3000 -66.0374 HU 80 13 323
1871266N11315 1871 24 NA NA NOT_NAMED 1871-09-27 18:00:00 TS 21.8000 -66.4000 main 380 380 _____________O -1 21.8000 -66.4000 HU 80 11 330
1871266N11315 1871 24 NA NA NOT_NAMED 1871-09-27 21:00:00 TS 22.2498 -66.6379 main 424 424 _____________P -1 22.2498 -66.6379 HU 80 10 338
1871266N11315 1871 24 NA NA NOT_NAMED 1871-09-28 00:00:00 TS 22.7000 -66.8000 main 460 460 _____________O -1 22.7000 -66.8000 HU 80 10 342
1871266N11315 1871 24 NA NA NOT_NAMED 1871-09-28 03:00:00 TS 23.2225 -66.9724 main 496 496 _____________P -1 23.2225 -66.9724 HU 80 10 344
1871266N11315 1871 24 NA NA NOT_NAMED 1871-09-28 06:00:00 TS 23.7000 -67.1000 main 542 542 _____________O -1 23.7000 -67.1000 HU 80 8 347
1871266N11315 1871 24 NA NA NOT_NAMED 1871-09-28 09:00:00 TS 24.0225 -67.1652 main 568 568 _____________P -1 24.0225 -67.1652 HU 80 6 352
1871266N11315 1871 24 NA NA NOT_NAMED 1871-09-28 12:00:00 TS 24.3000 -67.2000 main 599 599 _____________O -1 24.3000 -67.2000 HU 80 6 352
1871266N11315 1871 24 NA NA NOT_NAMED 1871-09-28 15:00:00 TS 24.6425 -67.2649 main 624 624 _____________P -1 24.6425 -67.2649 HU 77 7 353
1871266N11315 1871 24 NA NA NOT_NAMED 1871-09-28 18:00:00 TS 25.0000 -67.3000 main 664 664 _____________O -1 25.0000 -67.3000 HU 75 7 358
1871266N11315 1871 24 NA NA NOT_NAMED 1871-09-28 21:00:00 TS 25.3575 -67.2651 main 705 705 _____________P -1 25.3575 -67.2651 HU 75 7 7
1871266N11315 1871 24 NA NA NOT_NAMED 1871-09-29 00:00:00 TS 25.7000 -67.2000 main 739 739 _____________O -1 25.7000 -67.2000 HU 75 6 9
1871266N11315 1871 24 NA NA NOT_NAMED 1871-09-29 03:00:00 TS 25.9700 -67.1647 main 770 770 _____________P -1 25.9700 -67.1647 HU 75 6 8
1871266N11315 1871 24 NA NA NOT_NAMED 1871-09-29 06:00:00 TS 26.3000 -67.1000 main 805 805 _____________O -1 26.3000 -67.1000 HU 75 9 12
1871266N11315 1871 24 NA NA NOT_NAMED 1871-09-29 09:00:00 TS 26.8125 -66.9651 main 861 861 _____________P -1 26.8125 -66.9651 HU 75 11 14
1871266N11315 1871 24 NA NA NOT_NAMED 1871-09-29 12:00:00 TS 27.4000 -66.8000 main 930 930 _____________O -1 27.4000 -66.8000 HU 75 12 13
1871266N11315 1871 24 NA NA NOT_NAMED 1871-09-29 15:00:00 TS 27.9499 -66.6720 main 982 982 _____________P -1 27.9499 -66.6720 HU 75 11 14
1871266N11315 1871 24 NA NA NOT_NAMED 1871-09-29 18:00:00 TS 28.5000 -66.5000 main 1045 1045 _____________O -1 28.5000 -66.5000 HU 75 12 20
1871266N11315 1871 24 NA NA NOT_NAMED 1871-09-29 21:00:00 TS 29.0576 -66.2152 main 1116 1116 _____________P -1 29.0576 -66.2152 HU 72 12 26
1871266N11315 1871 24 NA NA NOT_NAMED 1871-09-30 00:00:00 TS 29.6000 -65.9000 main 1131 1117 _____________O -1 29.6000 -65.9000 HU 70 11 24
1871266N11315 1871 24 NA NA NOT_NAMED 1871-09-30 03:00:00 TS 30.0771 -65.6859 main 1111 1100 _____________P -1 30.0771 -65.6859 HU 70 11 23
1871266N11315 1871 24 NA NA NOT_NAMED 1871-09-30 06:00:00 TS 30.6000 -65.4000 main 1101 1093 _____________O -1 30.6000 -65.4000 HU 70 14 28
1871266N11315 1871 24 NA NA NOT_NAMED 1871-09-30 09:00:00 TS 31.2694 -64.9467 main 1100 1094 _____________P -1 31.2694 -64.9467 HU 67 17 34
1871266N11315 1871 24 NA NA NOT_NAMED 1871-09-30 12:00:00 TS 32.0000 -64.3000 main 1114 1114 _____________O -1 32.0000 -64.3000 HU 65 19 42
1871266N11315 1871 24 NA NA NOT_NAMED 1871-09-30 15:00:00 TS 32.7008 -63.4303 main 1158 1134 _____________P -1 32.7008 -63.4303 HU 62 21 47
1871266N11315 1871 24 NA NA NOT_NAMED 1871-09-30 18:00:00 TS 33.4000 -62.5000 main 1134 1089 _____________O -1 33.4000 -62.5000 TS 60 20 46
1871266N11315 1871 24 NA NA NOT_NAMED 1871-09-30 21:00:00 TS 34.0991 -61.7257 main 1091 1036 _____________P -1 34.0991 -61.7257 TS 55 19 42
1871266N11315 1871 24 NA NA NOT_NAMED 1871-10-01 00:00:00 TS 34.8000 -61.0000 main 1036 987 _____________O -1 34.8000 -61.0000 TS 50 19 41
1871266N11315 1871 24 NA NA NOT_NAMED 1871-10-01 03:00:00 TS 35.4995 -60.2487 main 991 950 _____________P -1 35.4995 -60.2487 TS 45 19 41
1871266N11315 1871 24 NA NA NOT_NAMED 1871-10-01 06:00:00 TS 36.2000 -59.5000 main 950 917 _____________O -1 36.2000 -59.5000 TS 40 19 41
1871266N11315 1871 24 NA NA NOT_NAMED 1871-10-01 09:00:00 TS 36.9009 -58.7528 main 917 883 _____________P -1 36.9009 -58.7528 TS 35 18 41
1871266N11315 1871 24 NA NA NOT_NAMED 1871-10-01 12:00:00 TS 37.6000 -58.0000 main 883 _____________O -1 37.6000 -58.0000 TD 30 18 40

About IBTrACS Database

This database is a web-friendly format of International Best Track Archive for Climate Stewardship (IBTrACS), a global best track data archive curated by NOAA dating back to 1842.

Updated: 2021-11-26